createdAt,value
2023-01-09T00:01:48.120Z,2.40
2023-01-09T00:04:16.275Z,2.50
2023-01-09T00:06:45.890Z,2.25
2023-01-09T00:09:13.461Z,2.88
2023-01-09T00:11:41.025Z,2.80
2023-01-09T00:14:10.909Z,2.90
2023-01-09T00:16:38.770Z,2.80
2023-01-09T00:19:06.364Z,2.70
2023-01-09T00:21:34.204Z,3.13
2023-01-09T00:24:02.015Z,2.67
2023-01-09T00:26:30.035Z,2.05
2023-01-09T00:28:58.535Z,1.80
2023-01-09T00:31:26.293Z,1.48
2023-01-09T00:34:05.297Z,0.98
2023-01-09T00:36:32.870Z,0.70
2023-01-09T00:39:00.395Z,0.70
2023-01-09T00:41:32.108Z,0.63
2023-01-09T00:44:12.705Z,0.60
2023-01-09T00:46:45.519Z,0.63
2023-01-09T00:49:14.837Z,0.50
2023-01-09T00:51:42.894Z,0.50
2023-01-09T00:54:14.473Z,0.40
2023-01-09T00:56:42.443Z,0.10
2023-01-09T00:59:10.206Z,0.10
2023-01-09T01:01:37.901Z,0.10
2023-01-09T01:04:25.464Z,0.20
2023-01-09T01:07:11.865Z,0.20
2023-01-09T01:09:39.449Z,0.47
2023-01-09T01:12:07.346Z,0.10
2023-01-09T01:14:37.057Z,0.10
2023-01-09T01:17:05.822Z,0.08
2023-01-09T01:19:35.385Z,0.00
2023-01-09T01:22:03.796Z,0.10
2023-01-09T01:24:31.539Z,0.10
2023-01-09T01:26:59.155Z,0.00
2023-01-09T01:29:27.379Z,0.10
2023-01-09T01:31:55.092Z,0.00
2023-01-09T01:34:22.717Z,0.10
2023-01-09T01:36:50.327Z,0.10
2023-01-09T01:39:17.848Z,0.10
2023-01-09T01:41:45.508Z,0.25
2023-01-09T01:44:50.336Z,0.10
2023-01-09T01:47:20.385Z,0.00
2023-01-09T01:49:48.571Z,0.00
2023-01-09T01:52:19.457Z,0.00
2023-01-09T01:54:48.172Z,0.00
2023-01-09T01:57:15.763Z,0.00
2023-01-09T01:59:51.300Z,0.00
2023-01-09T02:02:22.586Z,0.13
2023-01-09T02:04:53.664Z,0.00
2023-01-09T02:07:21.234Z,0.00
2023-01-09T02:09:49.201Z,0.00
2023-01-09T02:12:25.105Z,0.08
2023-01-09T02:15:06.907Z,0.00
2023-01-09T02:17:43.451Z,0.00
2023-01-09T02:20:45.399Z,0.00
2023-01-09T02:23:50.692Z,0.10
2023-01-09T02:26:54.770Z,0.00
2023-01-09T02:29:44.172Z,0.00
2023-01-09T02:32:20.677Z,0.10
2023-01-09T02:35:04.424Z,0.00
2023-01-09T02:37:51.813Z,0.10
2023-01-09T02:40:31.313Z,0.00
2023-01-09T02:43:00.557Z,0.00
2023-01-09T02:45:28.173Z,0.00
2023-01-09T02:47:55.833Z,0.10
2023-01-09T02:50:39.730Z,0.10
2023-01-09T02:53:26.076Z,0.10
2023-01-09T02:56:20.311Z,0.13
2023-01-09T02:58:59.987Z,0.00
2023-01-09T03:01:34.514Z,0.10
2023-01-09T03:04:19.212Z,0.10
2023-01-09T03:06:58.665Z,0.00
2023-01-09T03:09:29.537Z,0.00
2023-01-09T03:12:04.375Z,0.10
2023-01-09T03:14:34.039Z,0.00
2023-01-09T03:17:06.316Z,0.10
2023-01-09T03:19:35.357Z,0.08
2023-01-09T03:22:03.622Z,0.10
2023-01-09T03:24:31.354Z,0.10
2023-01-09T03:26:58.963Z,0.03
2023-01-09T03:29:27.848Z,0.03
2023-01-09T03:31:57.582Z,0.08
2023-01-09T03:34:25.705Z,0.10
2023-01-09T03:36:53.211Z,0.10
2023-01-09T03:39:20.680Z,0.10
2023-01-09T03:41:48.232Z,0.20
2023-01-09T03:44:15.796Z,0.05
2023-01-09T03:46:43.433Z,0.10
2023-01-09T03:49:11.017Z,0.00
2023-01-09T03:51:38.564Z,0.00
2023-01-09T03:54:06.041Z,0.17
2023-01-09T03:56:33.657Z,0.10
2023-01-09T03:59:01.235Z,0.10
2023-01-09T04:01:28.910Z,0.10
2023-01-09T04:03:56.575Z,0.00
2023-01-09T04:06:24.322Z,0.20
2023-01-09T04:08:52.003Z,0.00
2023-01-09T04:11:22.432Z,0.10
2023-01-09T04:13:50.044Z,0.00
2023-01-09T04:16:17.568Z,0.30
2023-01-09T04:18:45.189Z,0.20
2023-01-09T04:21:12.708Z,0.13
2023-01-09T04:23:40.353Z,0.15
2023-01-09T04:26:08.136Z,0.00
2023-01-09T04:28:35.753Z,0.10
2023-01-09T04:31:03.462Z,0.10
2023-01-09T04:33:31.267Z,0.30
2023-01-09T04:35:59.031Z,0.10
2023-01-09T04:38:27.563Z,0.10
2023-01-09T04:40:55.453Z,0.00
2023-01-09T04:43:22.992Z,0.10
2023-01-09T04:45:50.523Z,0.13
2023-01-09T04:48:18.116Z,0.10
2023-01-09T04:50:45.663Z,0.13
2023-01-09T04:53:13.215Z,0.10
2023-01-09T04:55:41.557Z,0.17
2023-01-09T04:58:09.358Z,0.00
2023-01-09T05:00:36.846Z,0.10
2023-01-09T05:03:04.406Z,0.05
2023-01-09T05:05:31.895Z,0.10
2023-01-09T05:07:59.496Z,0.00
2023-01-09T05:10:27.002Z,0.10
2023-01-09T05:12:54.546Z,0.00
2023-01-09T05:15:22.237Z,0.10
2023-01-09T05:17:49.849Z,0.10
2023-01-09T05:20:17.508Z,0.00
2023-01-09T05:22:45.325Z,0.10
2023-01-09T05:25:12.899Z,0.17
2023-01-09T05:27:43.966Z,0.10
2023-01-09T05:30:13.695Z,0.00
2023-01-09T05:32:41.885Z,0.10
2023-01-09T05:35:09.664Z,0.10
2023-01-09T05:37:37.236Z,0.13
2023-01-09T05:40:05.217Z,0.10
2023-01-09T05:42:32.833Z,0.10
2023-01-09T05:45:00.878Z,0.20
2023-01-09T05:47:28.523Z,0.20
2023-01-09T05:49:58.784Z,0.20
2023-01-09T05:52:26.398Z,0.10
2023-01-09T05:54:53.933Z,0.30
2023-01-09T05:57:21.484Z,0.40
2023-01-09T05:59:48.987Z,0.10
2023-01-09T06:02:16.767Z,0.10
2023-01-09T06:04:44.621Z,0.20
2023-01-09T06:07:15.513Z,0.20
2023-01-09T06:09:46.160Z,0.37
2023-01-09T06:12:13.872Z,0.20
2023-01-09T06:14:41.396Z,0.25
2023-01-09T06:17:09.284Z,0.20
2023-01-09T06:19:36.887Z,0.20
2023-01-09T06:22:04.406Z,0.20
2023-01-09T06:24:31.901Z,0.82
2023-01-09T06:26:59.528Z,0.30
2023-01-09T06:29:27.159Z,0.13
2023-01-09T06:31:54.623Z,0.20
2023-01-09T06:34:22.243Z,0.10
2023-01-09T06:36:49.766Z,0.10
2023-01-09T06:39:17.395Z,0.30
2023-01-09T06:41:47.114Z,0.28
2023-01-09T06:44:16.055Z,0.15
2023-01-09T06:46:43.560Z,0.30
2023-01-09T06:49:11.598Z,0.40
2023-01-09T06:51:39.214Z,0.50
2023-01-09T06:54:06.742Z,0.70
2023-01-09T06:56:34.290Z,1.30
2023-01-09T06:59:02.116Z,0.70
2023-01-09T07:01:29.804Z,0.50
2023-01-09T07:03:57.591Z,1.30
2023-01-09T07:06:25.611Z,1.02
2023-01-09T07:08:53.340Z,1.00
2023-01-09T07:11:20.887Z,0.70
2023-01-09T07:13:48.456Z,0.47
2023-01-09T07:16:16.176Z,0.55
2023-01-09T07:18:44.035Z,0.35
2023-01-09T07:21:11.541Z,0.10
2023-01-09T07:23:39.089Z,0.60
2023-01-09T07:26:06.648Z,0.20
2023-01-09T07:28:34.263Z,0.10
2023-01-09T07:31:02.731Z,0.40
2023-01-09T07:33:30.712Z,0.10
2023-01-09T07:35:58.509Z,0.30
2023-01-09T07:38:26.415Z,0.25
2023-01-09T07:40:54.043Z,0.10
2023-01-09T07:43:21.602Z,0.30
2023-01-09T07:45:49.141Z,0.22
2023-01-09T07:48:16.825Z,0.33
2023-01-09T07:50:44.448Z,0.40
2023-01-09T07:53:12.111Z,0.60
2023-01-09T07:55:40.045Z,0.65
2023-01-09T07:58:07.641Z,0.98
2023-01-09T08:00:35.249Z,0.83
2023-01-09T08:03:03.030Z,0.77
2023-01-09T08:05:30.601Z,0.50
2023-01-09T08:07:58.495Z,0.70
2023-01-09T08:10:26.255Z,1.05
2023-01-09T08:12:53.904Z,1.80
2023-01-09T08:15:21.387Z,1.80
2023-01-09T08:17:49.002Z,1.10
2023-01-09T08:20:17.717Z,1.48
2023-01-09T08:22:50.610Z,1.00
2023-01-09T08:25:18.736Z,0.53
2023-01-09T08:27:47.114Z,0.60
2023-01-09T08:30:15.809Z,0.50
2023-01-09T08:32:43.617Z,0.40
2023-01-09T08:35:11.290Z,0.30
2023-01-09T08:37:38.913Z,0.50
2023-01-09T08:40:07.135Z,0.60
2023-01-09T08:42:53.250Z,0.52
2023-01-09T08:45:39.240Z,0.80
2023-01-09T08:48:07.626Z,0.85
2023-01-09T08:50:35.169Z,0.57
2023-01-09T08:53:02.931Z,0.73
2023-01-09T08:55:30.615Z,0.82
2023-01-09T08:57:58.278Z,0.50
2023-01-09T09:00:26.086Z,0.40
2023-01-09T09:02:55.716Z,0.70
2023-01-09T09:05:24.497Z,0.63
2023-01-09T09:07:56.263Z,0.57
2023-01-09T09:10:26.324Z,0.50
2023-01-09T09:12:55.902Z,0.30
2023-01-09T09:15:25.190Z,0.60
2023-01-09T09:17:54.529Z,0.65
2023-01-09T09:20:24.111Z,0.40
2023-01-09T09:22:51.994Z,0.55
2023-01-09T09:25:19.666Z,0.52
2023-01-09T09:27:47.834Z,0.47
2023-01-09T09:30:18.552Z,0.40
2023-01-09T09:32:47.007Z,0.60
2023-01-09T09:35:14.857Z,0.90
2023-01-09T09:37:42.436Z,0.77
2023-01-09T09:40:20.267Z,0.70
2023-01-09T09:43:34.271Z,0.90
2023-01-09T09:46:20.791Z,0.77
2023-01-09T09:48:54.694Z,0.70
2023-01-09T09:51:22.309Z,1.15
2023-01-09T09:53:55.899Z,1.03
2023-01-09T09:56:24.332Z,0.50
2023-01-09T09:59:15.100Z,0.65
2023-01-09T10:01:55.428Z,0.60
2023-01-09T10:04:25.963Z,0.70
2023-01-09T10:07:00.131Z,0.60
2023-01-09T10:09:46.897Z,0.70
2023-01-09T10:12:39.141Z,0.57
2023-01-09T10:15:18.325Z,0.30
2023-01-09T10:18:18.265Z,0.60
2023-01-09T10:21:16.638Z,0.53
2023-01-09T10:24:12.539Z,0.63
2023-01-09T10:26:45.515Z,0.40
2023-01-09T10:29:36.576Z,0.70
2023-01-09T10:32:07.065Z,0.43
2023-01-09T10:34:50.439Z,0.80
2023-01-09T10:37:40.536Z,0.30
2023-01-09T10:40:25.365Z,0.40
2023-01-09T10:42:59.314Z,0.32
2023-01-09T10:45:31.521Z,0.50
2023-01-09T10:48:11.578Z,0.33
2023-01-09T10:50:45.979Z,0.38
2023-01-09T10:53:28.681Z,0.25
2023-01-09T10:56:14.295Z,0.40
2023-01-09T10:58:41.957Z,0.50
2023-01-09T11:01:09.850Z,0.60
2023-01-09T11:03:39.115Z,0.38
2023-01-09T11:06:21.946Z,0.50
2023-01-09T11:08:53.621Z,0.77
2023-01-09T11:11:44.525Z,0.40
2023-01-09T11:14:33.241Z,0.40
2023-01-09T11:17:04.034Z,0.40
2023-01-09T11:19:33.663Z,0.55
2023-01-09T11:22:09.539Z,0.40
2023-01-09T11:24:37.250Z,0.30
2023-01-09T11:27:13.941Z,0.37
2023-01-09T11:29:42.174Z,0.55
2023-01-09T11:32:23.256Z,0.30
2023-01-09T11:34:51.092Z,0.30
2023-01-09T11:37:26.237Z,0.40
2023-01-09T11:39:55.663Z,0.50
2023-01-09T11:42:44.905Z,0.30
2023-01-09T11:45:24.323Z,0.40
2023-01-09T11:47:51.879Z,0.30
2023-01-09T11:50:29.424Z,0.47
2023-01-09T11:53:17.790Z,0.20
2023-01-09T11:55:47.393Z,0.50
2023-01-09T11:58:17.816Z,0.20
2023-01-09T12:01:25.911Z,0.32
2023-01-09T12:04:11.152Z,0.47
2023-01-09T12:06:45.119Z,0.53
2023-01-09T12:09:28.941Z,0.43
2023-01-09T12:12:09.881Z,0.20
2023-01-09T12:14:45.402Z,0.22
2023-01-09T12:17:50.280Z,0.10
2023-01-09T12:21:05.792Z,0.30
2023-01-09T12:23:45.423Z,0.30
2023-01-09T12:26:15.873Z,0.40
2023-01-09T12:29:07.688Z,0.25
2023-01-09T12:31:47.461Z,0.20
2023-01-09T12:34:30.916Z,0.20
2023-01-09T12:37:26.217Z,0.10
2023-01-09T12:40:15.261Z,0.10
2023-01-09T12:43:33.090Z,0.20
2023-01-09T12:46:13.986Z,0.20
2023-01-09T12:49:22.344Z,0.30
2023-01-09T12:51:56.142Z,0.40
2023-01-09T12:54:42.442Z,0.43
2023-01-09T12:57:19.157Z,0.50
2023-01-09T13:00:07.705Z,0.32
2023-01-09T13:02:44.400Z,0.30
2023-01-09T13:11:23.216Z,0.52
2023-01-09T13:14:17.721Z,0.40
2023-01-09T13:16:50.138Z,0.60
2023-01-09T13:19:49.997Z,1.08
2023-01-09T13:22:18.314Z,1.20
2023-01-09T13:25:03.332Z,1.05
2023-01-09T13:27:39.082Z,1.33
2023-01-09T13:30:20.124Z,1.30
2023-01-09T13:33:04.710Z,0.60
2023-01-09T13:35:32.522Z,0.80
2023-01-09T13:38:00.386Z,0.50
2023-01-09T13:40:30.345Z,0.52
2023-01-09T13:42:59.009Z,0.40
2023-01-09T13:45:29.634Z,0.40
2023-01-09T13:48:18.035Z,0.50
2023-01-09T13:50:47.554Z,0.40
2023-01-09T13:53:18.147Z,0.55
2023-01-09T13:55:58.016Z,0.70
2023-01-09T13:58:32.088Z,0.77
2023-01-09T14:01:02.227Z,0.45
2023-01-09T14:03:36.666Z,0.30
2023-01-09T14:06:12.097Z,0.52
2023-01-09T14:08:42.112Z,0.63
2023-01-09T14:11:18.436Z,0.50
2023-01-09T14:13:47.039Z,0.57
2023-01-09T14:16:20.708Z,0.60
2023-01-09T14:18:50.650Z,0.70
2023-01-09T14:21:19.079Z,0.70
2023-01-09T14:24:07.207Z,0.70
2023-01-09T14:26:50.738Z,0.70
2023-01-09T14:29:31.413Z,0.85
2023-01-09T14:32:23.659Z,1.25
2023-01-09T14:35:03.532Z,1.37
2023-01-09T14:37:38.408Z,0.80
2023-01-09T14:40:08.468Z,0.45
2023-01-09T14:42:40.900Z,0.77
2023-01-09T14:45:19.463Z,0.30
2023-01-09T14:47:53.490Z,0.70
2023-01-09T14:50:38.069Z,0.40
2023-01-09T14:53:12.322Z,0.70
2023-01-09T14:55:57.795Z,0.77
2023-01-09T14:58:35.063Z,1.23
2023-01-09T15:01:04.769Z,0.40
2023-01-09T15:03:38.675Z,1.40
2023-01-09T15:06:12.259Z,0.47
2023-01-09T15:08:39.948Z,0.43
2023-01-09T15:11:11.960Z,0.60
2023-01-09T15:13:49.127Z,0.60
2023-01-09T15:16:22.885Z,0.40
2023-01-09T15:18:54.590Z,0.80
2023-01-09T15:21:24.688Z,0.63
2023-01-09T15:23:53.010Z,0.40
2023-01-09T15:26:27.103Z,0.47
2023-01-09T15:29:02.063Z,0.57
2023-01-09T15:31:29.858Z,0.60
2023-01-09T15:33:57.620Z,0.60
2023-01-09T15:36:28.678Z,0.52
2023-01-09T15:38:58.995Z,0.53
2023-01-09T15:41:47.886Z,0.50
2023-01-09T15:44:18.700Z,0.60
2023-01-09T15:46:52.474Z,0.60
2023-01-09T15:49:20.634Z,0.50
2023-01-09T15:51:49.374Z,0.57
2023-01-09T15:54:23.530Z,0.45
2023-01-09T15:56:51.122Z,0.50
2023-01-09T15:59:27.850Z,0.43
2023-01-09T16:02:24.578Z,0.65
2023-01-09T16:04:54.813Z,0.70
2023-01-09T16:07:22.559Z,0.30
2023-01-09T16:09:52.854Z,0.50
2023-01-09T16:12:27.399Z,0.50
2023-01-09T16:14:58.093Z,0.73
2023-01-09T16:17:27.271Z,0.67
2023-01-09T16:20:14.631Z,0.80
2023-01-09T16:22:55.888Z,0.30
2023-01-09T16:25:34.366Z,0.40
2023-01-09T16:28:23.598Z,0.50
2023-01-09T16:31:03.356Z,0.47
2023-01-09T16:33:31.910Z,0.75
2023-01-09T16:35:59.709Z,0.40
2023-01-09T16:38:27.676Z,0.40
2023-01-09T16:41:26.217Z,0.40
2023-01-09T16:43:54.125Z,0.40
2023-01-09T16:46:22.487Z,0.50
2023-01-09T16:48:50.624Z,0.52
2023-01-09T16:51:21.857Z,0.50
2023-01-09T16:53:50.612Z,0.25
2023-01-09T16:56:22.765Z,0.30
2023-01-09T16:58:52.806Z,0.30
2023-01-09T17:01:22.442Z,0.13
2023-01-09T17:03:50.727Z,0.60
2023-01-09T17:06:30.441Z,0.20
2023-01-09T17:08:58.751Z,0.47
2023-01-09T17:11:31.778Z,0.45
2023-01-09T17:14:02.533Z,0.40
2023-01-09T17:16:30.699Z,0.70
2023-01-09T17:18:58.572Z,0.68
2023-01-09T17:21:31.107Z,0.70
2023-01-09T17:24:18.521Z,0.50
2023-01-09T17:27:09.439Z,0.50
2023-01-09T17:29:37.659Z,0.80
2023-01-09T17:32:05.510Z,0.60
2023-01-09T17:34:34.806Z,0.60
2023-01-09T17:37:04.396Z,0.52
2023-01-09T17:39:32.635Z,0.30
2023-01-09T17:42:02.013Z,0.30
2023-01-09T17:44:29.752Z,0.25
2023-01-09T17:46:57.601Z,0.40
2023-01-09T17:49:27.090Z,0.30
2023-01-09T17:51:54.787Z,0.30
2023-01-09T17:54:22.460Z,0.22
2023-01-09T17:56:51.244Z,0.20
2023-01-09T17:59:19.108Z,0.50
2023-01-09T18:01:47.131Z,0.30
2023-01-09T18:04:14.823Z,0.93
2023-01-09T18:06:42.819Z,0.43
2023-01-09T18:09:15.691Z,0.52
2023-01-09T18:11:44.933Z,0.60
2023-01-09T18:14:13.834Z,0.90
2023-01-09T18:16:41.734Z,0.80
2023-01-09T18:19:09.556Z,1.10
2023-01-09T18:21:37.105Z,0.90
2023-01-09T18:24:05.322Z,0.70
2023-01-09T18:26:32.876Z,0.45
2023-01-09T18:29:00.959Z,0.70
2023-01-09T18:31:29.965Z,0.68
2023-01-09T18:34:02.093Z,0.80
2023-01-09T18:36:30.554Z,0.70
2023-01-09T18:39:01.667Z,1.55
2023-01-09T18:41:30.369Z,2.22
2023-01-09T18:44:00.515Z,2.03
2023-01-09T18:47:01.314Z,0.90
2023-01-09T18:49:33.872Z,1.27
2023-01-09T18:52:01.653Z,2.05
2023-01-09T18:54:29.285Z,1.55
2023-01-09T18:56:56.891Z,1.10
2023-01-09T18:59:24.518Z,2.28
2023-01-09T19:01:52.174Z,2.37
2023-01-09T19:04:19.863Z,1.38
2023-01-09T19:06:47.533Z,1.10
2023-01-09T19:09:15.169Z,1.27
2023-01-09T19:11:45.994Z,0.75
2023-01-09T19:14:13.588Z,1.03
2023-01-09T19:16:41.264Z,0.95
2023-01-09T19:19:11.152Z,0.70
2023-01-09T19:21:38.796Z,1.02
2023-01-09T19:24:06.908Z,0.77
2023-01-09T19:26:34.636Z,0.50
2023-01-09T19:29:02.348Z,1.00
2023-01-09T19:31:30.278Z,0.70
2023-01-09T19:33:58.826Z,0.90
2023-01-09T19:36:27.537Z,1.15
2023-01-09T19:39:02.664Z,0.70
2023-01-09T19:41:31.115Z,0.70
2023-01-09T19:44:02.395Z,0.75
2023-01-09T19:46:33.558Z,0.70
2023-01-09T19:49:04.761Z,1.27
2023-01-09T19:51:33.738Z,0.70
2023-01-09T19:56:30.863Z,1.10
2023-01-09T19:59:01.066Z,0.80
2023-01-09T20:01:39.135Z,0.90
2023-01-09T20:04:13.609Z,1.10
2023-01-09T20:06:44.006Z,1.23
2023-01-09T20:09:14.044Z,0.90
2023-01-09T20:11:41.805Z,0.82
2023-01-09T20:14:16.736Z,1.13
2023-01-09T20:16:44.981Z,0.77
2023-01-09T20:19:13.274Z,1.23
2023-01-09T20:21:42.831Z,1.00
2023-01-09T20:24:14.571Z,1.05
2023-01-09T20:26:42.361Z,0.95
2023-01-09T20:29:10.077Z,1.37
2023-01-09T20:31:37.840Z,0.57
2023-01-09T20:34:05.508Z,1.17
2023-01-09T20:36:34.903Z,0.60
2023-01-09T20:39:05.573Z,1.20
2023-01-09T20:41:33.815Z,1.50
2023-01-09T20:44:04.997Z,1.27
2023-01-09T20:46:38.891Z,1.40
2023-01-09T20:49:08.623Z,1.65
2023-01-09T20:51:40.403Z,1.00
2023-01-09T20:54:08.067Z,1.67
2023-01-09T20:56:40.228Z,0.95
2023-01-09T20:59:13.087Z,1.02
2023-01-09T21:01:46.198Z,1.48
2023-01-09T21:04:14.036Z,1.02
2023-01-09T21:06:42.720Z,1.30
2023-01-09T21:09:10.465Z,0.93
2023-01-09T21:11:38.152Z,1.73
2023-01-09T21:14:05.808Z,1.45
2023-01-09T21:16:33.420Z,0.95
2023-01-09T21:19:01.073Z,1.20
2023-01-09T21:21:29.463Z,1.17
2023-01-09T21:23:59.176Z,1.50
2023-01-09T21:26:30.449Z,1.20
2023-01-09T21:29:00.027Z,1.25
2023-01-09T21:31:36.600Z,1.40
2023-01-09T21:34:06.905Z,1.77
2023-01-09T21:36:36.150Z,1.98
2023-01-09T21:39:07.893Z,4.45
2023-01-09T21:41:56.875Z,3.22
2023-01-09T21:44:43.020Z,2.40
2023-01-09T21:47:10.964Z,1.73
2023-01-09T21:49:43.434Z,1.52
2023-01-09T21:52:14.516Z,1.35
2023-01-09T21:54:42.340Z,1.25
2023-01-09T21:57:10.760Z,1.17
2023-01-09T21:59:43.194Z,1.52
2023-01-09T22:02:14.618Z,0.98
2023-01-09T22:04:43.158Z,1.42
2023-01-09T22:07:10.701Z,0.90
2023-01-09T22:09:38.325Z,1.33
2023-01-09T22:12:06.095Z,0.88
2023-01-09T22:14:33.758Z,0.90
2023-01-09T22:17:01.373Z,1.13
2023-01-09T22:19:28.973Z,1.20
2023-01-09T22:21:56.554Z,1.13
2023-01-09T22:24:24.223Z,1.00
2023-01-09T22:26:51.858Z,1.00
2023-01-09T22:29:19.531Z,0.80
2023-01-09T22:31:47.944Z,0.88
2023-01-09T22:34:17.359Z,1.00
2023-01-09T22:36:46.721Z,1.02
2023-01-09T22:39:16.640Z,0.90
2023-01-09T22:41:44.847Z,0.75
2023-01-09T22:44:12.997Z,0.98
2023-01-09T22:46:40.707Z,0.73
2023-01-09T22:49:09.156Z,0.60
2023-01-09T22:51:36.745Z,0.90
2023-01-09T22:54:04.526Z,0.65
2023-01-09T22:56:34.938Z,0.57
2023-01-09T22:59:02.545Z,0.40
2023-01-09T23:01:30.150Z,0.80
2023-01-09T23:03:57.819Z,0.60
2023-01-09T23:06:25.628Z,0.65
2023-01-09T23:08:55.772Z,0.50
2023-01-09T23:11:48.282Z,0.47
2023-01-09T23:14:17.172Z,0.50
2023-01-09T23:16:44.842Z,0.50
2023-01-09T23:19:15.756Z,0.40
2023-01-09T23:21:44.791Z,0.30
2023-01-09T23:24:15.543Z,0.30
2023-01-09T23:26:44.139Z,0.40
2023-01-09T23:29:12.770Z,0.10
2023-01-09T23:31:40.554Z,0.32
2023-01-09T23:34:08.510Z,0.40
2023-01-09T23:36:36.245Z,0.47
2023-01-09T23:39:08.853Z,0.40
2023-01-09T23:41:55.844Z,0.50
2023-01-09T23:44:23.745Z,0.40
2023-01-09T23:46:51.661Z,0.30
2023-01-09T23:49:19.571Z,0.43
2023-01-09T23:51:47.475Z,0.20
2023-01-09T23:54:16.367Z,0.40
2023-01-09T23:56:44.008Z,0.30
2023-01-09T23:59:13.483Z,0.20
